createdAt,value
2023-05-17T00:01:32.427Z,1.80
2023-05-17T00:04:00.561Z,1.40
2023-05-17T00:06:27.485Z,1.33
2023-05-17T00:08:55.182Z,1.80
2023-05-17T00:11:22.949Z,1.35
2023-05-17T00:13:52.466Z,1.25
2023-05-17T00:16:22.085Z,1.00
2023-05-17T00:18:48.942Z,1.88
2023-05-17T00:21:16.294Z,1.17
2023-05-17T00:23:43.139Z,1.30
2023-05-17T00:26:10.255Z,1.48
2023-05-17T00:28:39.380Z,1.75
2023-05-17T00:31:07.547Z,1.25
2023-05-17T00:33:34.353Z,1.97
2023-05-17T00:36:02.015Z,1.27
2023-05-17T00:38:28.959Z,2.10
2023-05-17T00:40:55.908Z,1.42
2023-05-17T00:43:26.543Z,3.30
2023-05-17T00:45:53.506Z,1.30
2023-05-17T00:48:29.995Z,1.33
2023-05-17T00:50:58.901Z,1.25
2023-05-17T00:53:27.785Z,1.25
2023-05-17T00:55:56.568Z,1.67
2023-05-17T00:58:24.488Z,1.40
2023-05-17T01:00:54.521Z,1.80
2023-05-17T01:03:22.934Z,2.55
2023-05-17T01:05:51.718Z,1.02
2023-05-17T01:08:18.635Z,1.48
2023-05-17T01:11:18.779Z,1.30
2023-05-17T01:14:01.435Z,1.30
2023-05-17T01:16:36.928Z,1.55
2023-05-17T01:19:51.156Z,1.45
2023-05-17T01:22:33.089Z,1.50
2023-05-17T01:24:59.760Z,1.80
2023-05-17T01:27:30.200Z,1.13
2023-05-17T01:29:57.730Z,1.15
2023-05-17T01:32:25.526Z,1.58
2023-05-17T01:34:55.646Z,1.55
2023-05-17T01:37:22.397Z,1.63
2023-05-17T01:39:49.681Z,1.42
2023-05-17T01:42:24.940Z,2.75
2023-05-17T01:45:06.841Z,1.60
2023-05-17T01:47:48.300Z,1.02
2023-05-17T01:50:18.372Z,1.03
2023-05-17T01:53:25.166Z,1.42
2023-05-17T01:55:57.076Z,1.50
2023-05-17T01:58:28.717Z,1.90
2023-05-17T02:01:00.945Z,1.48
2023-05-17T02:03:29.773Z,1.83
2023-05-17T02:05:56.795Z,1.75
2023-05-17T02:08:24.986Z,1.63
2023-05-17T02:10:52.171Z,1.27
2023-05-17T02:13:21.002Z,1.60
2023-05-17T02:15:51.087Z,2.43
2023-05-17T02:18:18.489Z,1.67
2023-05-17T02:20:45.515Z,1.58
2023-05-17T02:23:17.312Z,1.77
2023-05-17T02:25:44.578Z,1.52
2023-05-17T02:28:11.417Z,1.67
2023-05-17T02:30:44.607Z,1.58
2023-05-17T02:33:14.933Z,2.58
2023-05-17T02:35:42.905Z,1.52
2023-05-17T02:38:09.673Z,1.90
2023-05-17T02:40:37.511Z,1.70
2023-05-17T02:43:04.126Z,1.65
2023-05-17T02:45:31.354Z,1.65
2023-05-17T02:47:58.399Z,1.05
2023-05-17T02:50:25.207Z,1.63
2023-05-17T02:52:53.078Z,1.77
2023-05-17T02:55:22.139Z,1.70
2023-05-17T02:57:50.792Z,1.50
2023-05-17T03:00:18.573Z,1.98
2023-05-17T03:02:46.384Z,1.85
2023-05-17T03:05:14.346Z,1.50
2023-05-17T03:07:41.602Z,1.40
2023-05-17T03:10:08.850Z,2.33
2023-05-17T03:12:35.462Z,2.25
2023-05-17T03:15:02.147Z,1.48
2023-05-17T03:17:30.237Z,1.93
2023-05-17T03:19:57.231Z,1.10
2023-05-17T03:22:24.275Z,1.55
2023-05-17T03:24:52.882Z,1.73
2023-05-17T03:27:20.307Z,1.92
2023-05-17T03:29:47.040Z,2.17
2023-05-17T03:32:15.226Z,1.52
2023-05-17T03:34:42.794Z,1.80
2023-05-17T03:37:09.680Z,2.45
2023-05-17T03:39:36.846Z,1.40
2023-05-17T03:42:04.903Z,3.40
2023-05-17T03:44:34.651Z,1.80
2023-05-17T03:47:02.010Z,1.95
2023-05-17T03:49:28.699Z,1.77
2023-05-17T03:51:55.356Z,2.20
2023-05-17T03:54:22.257Z,1.77
2023-05-17T03:56:53.173Z,1.98
2023-05-17T03:59:21.013Z,2.22
2023-05-17T04:01:49.827Z,1.30
2023-05-17T04:04:19.502Z,1.02
2023-05-17T04:06:46.983Z,1.60
2023-05-17T04:09:16.704Z,1.02
2023-05-17T04:11:43.779Z,1.02
2023-05-17T04:14:10.872Z,0.77
2023-05-17T04:16:39.393Z,1.23
2023-05-17T04:19:07.150Z,0.73
2023-05-17T04:21:37.521Z,1.10
2023-05-17T04:24:05.982Z,0.65
2023-05-17T04:26:33.213Z,0.73
2023-05-17T04:29:01.907Z,0.95
2023-05-17T04:31:34.478Z,0.67
2023-05-17T04:34:02.684Z,0.70
2023-05-17T04:36:30.705Z,1.05
2023-05-17T04:38:59.897Z,1.23
2023-05-17T04:41:35.237Z,0.60
2023-05-17T04:44:01.937Z,1.00
2023-05-17T04:46:31.254Z,1.15
2023-05-17T04:49:01.204Z,0.60
2023-05-17T04:51:29.206Z,0.50
2023-05-17T04:53:58.756Z,0.85
2023-05-17T04:56:26.211Z,0.77
2023-05-17T04:58:53.165Z,0.98
2023-05-17T05:01:22.363Z,0.93
2023-05-17T05:03:49.207Z,0.60
2023-05-17T05:06:17.524Z,1.33
2023-05-17T05:08:46.053Z,1.10
2023-05-17T05:11:14.085Z,2.37
2023-05-17T05:14:09.754Z,1.65
2023-05-17T05:16:37.094Z,0.50
2023-05-17T05:28:26.223Z,0.90
2023-05-17T05:37:01.684Z,1.02
2023-05-17T05:40:04.894Z,1.23
2023-05-17T05:54:27.968Z,1.83
2023-05-17T05:59:22.710Z,1.15
2023-05-17T06:28:29.029Z,1.25
2023-05-17T06:30:56.388Z,0.70
2023-05-17T06:33:23.281Z,0.50
2023-05-17T06:35:56.634Z,0.40
2023-05-17T06:38:24.884Z,0.80
2023-05-17T06:40:57.730Z,0.60
2023-05-17T06:43:25.918Z,0.73
2023-05-17T06:45:52.824Z,0.63
2023-05-17T06:48:22.711Z,1.17
2023-05-17T06:50:49.938Z,0.43
2023-05-17T06:53:16.916Z,1.75
2023-05-17T06:55:43.676Z,0.68
2023-05-17T06:58:10.675Z,0.77
2023-05-17T07:00:38.194Z,0.68
2023-05-17T07:03:06.232Z,0.40
2023-05-17T07:05:33.552Z,0.40
2023-05-17T07:08:02.676Z,0.43
2023-05-17T07:10:29.735Z,0.50
2023-05-17T07:12:56.410Z,0.43
2023-05-17T07:15:23.474Z,0.80
2023-05-17T07:17:51.137Z,0.47
2023-05-17T07:20:17.811Z,0.85
2023-05-17T07:22:45.180Z,0.85
2023-05-17T07:25:12.368Z,0.73
2023-05-17T07:27:39.699Z,1.13
2023-05-17T07:30:07.354Z,0.45
2023-05-17T07:32:33.987Z,0.68
2023-05-17T07:35:02.558Z,1.42
2023-05-17T07:37:29.215Z,0.47
2023-05-17T07:39:55.846Z,0.60
2023-05-17T07:42:22.828Z,0.30
2023-05-17T07:44:50.809Z,0.43
2023-05-17T07:47:17.961Z,0.30
2023-05-17T07:49:44.843Z,0.40
2023-05-17T07:52:12.942Z,0.40
2023-05-17T07:54:39.751Z,0.85
2023-05-17T07:57:06.390Z,0.38
2023-05-17T07:59:33.367Z,1.38
2023-05-17T08:02:00.234Z,0.30
2023-05-17T08:04:27.983Z,0.37
2023-05-17T08:06:55.825Z,0.75
2023-05-17T08:09:22.619Z,0.20
2023-05-17T08:11:51.726Z,0.30
2023-05-17T08:14:18.624Z,0.60
2023-05-17T08:16:48.150Z,0.47
2023-05-17T08:19:16.107Z,0.28
2023-05-17T08:21:43.620Z,0.38
2023-05-17T08:24:10.281Z,0.40
2023-05-17T08:26:38.970Z,0.70
2023-05-17T08:29:05.758Z,0.40
2023-05-17T08:31:34.492Z,0.57
2023-05-17T08:34:01.316Z,0.30
2023-05-17T08:36:28.553Z,0.30
2023-05-17T08:38:55.748Z,0.38
2023-05-17T08:41:23.014Z,0.20
2023-05-17T08:43:53.007Z,0.95
2023-05-17T08:46:23.950Z,1.10
2023-05-17T08:48:52.008Z,0.10
2023-05-17T08:51:20.308Z,0.25
2023-05-17T08:53:48.101Z,0.20
2023-05-17T08:56:16.825Z,0.43
2023-05-17T08:58:55.700Z,0.15
2023-05-17T09:01:25.873Z,0.40
2023-05-17T09:03:55.380Z,0.47
2023-05-17T09:06:25.417Z,0.20
2023-05-17T09:08:53.397Z,0.30
2023-05-17T09:11:30.294Z,0.60
2023-05-17T09:14:02.886Z,0.50
2023-05-17T09:16:34.076Z,0.20
2023-05-17T09:19:02.223Z,0.30
2023-05-17T09:21:32.029Z,0.40
2023-05-17T09:24:07.928Z,0.38
2023-05-17T09:26:45.499Z,0.40
2023-05-17T09:29:16.913Z,0.32
2023-05-17T09:31:46.966Z,0.30
2023-05-17T09:34:19.744Z,0.30
2023-05-17T09:36:46.460Z,0.25
2023-05-17T09:39:14.695Z,0.20
2023-05-17T09:41:43.229Z,0.30
2023-05-17T09:44:12.472Z,0.27
2023-05-17T09:46:45.133Z,0.30
2023-05-17T09:49:14.769Z,0.20
2023-05-17T09:51:47.045Z,0.60
2023-05-17T09:54:14.216Z,0.22
2023-05-17T09:56:41.151Z,0.93
2023-05-17T09:59:18.350Z,0.30
2023-05-17T10:01:46.308Z,0.30
2023-05-17T10:04:14.694Z,0.30
2023-05-17T10:06:48.842Z,0.47
2023-05-17T10:09:17.230Z,0.27
2023-05-17T10:11:47.110Z,0.15
2023-05-17T10:14:27.422Z,0.25
2023-05-17T10:16:55.002Z,0.15
2023-05-17T10:19:22.209Z,1.35
2023-05-17T10:21:51.666Z,0.20
2023-05-17T10:24:21.879Z,0.20
2023-05-17T10:26:52.112Z,0.30
2023-05-17T10:29:22.922Z,0.40
2023-05-17T10:31:51.483Z,0.20
2023-05-17T10:34:21.083Z,0.30
2023-05-17T10:36:51.932Z,0.10
2023-05-17T10:39:23.247Z,0.50
2023-05-17T10:41:55.737Z,0.43
2023-05-17T10:44:36.828Z,0.20
2023-05-17T10:47:04.547Z,0.30
2023-05-17T10:49:33.474Z,0.35
2023-05-17T10:52:16.315Z,0.60
2023-05-17T10:54:44.693Z,0.20
2023-05-17T10:57:50.730Z,0.30
2023-05-17T11:00:21.676Z,0.40
2023-05-17T11:02:49.568Z,0.40
2023-05-17T11:05:27.954Z,0.32
2023-05-17T11:08:17.400Z,0.20
2023-05-17T11:11:20.855Z,0.40
2023-05-17T11:13:52.787Z,0.20
2023-05-17T11:16:24.399Z,0.20
2023-05-17T11:18:55.269Z,0.20
2023-05-17T11:21:22.929Z,0.52
2023-05-17T11:23:57.131Z,0.30
2023-05-17T11:26:30.673Z,0.37
2023-05-17T11:29:08.720Z,0.63
2023-05-17T11:31:37.314Z,0.20
2023-05-17T11:34:06.503Z,0.25
2023-05-17T11:36:51.320Z,0.38
2023-05-17T11:39:21.653Z,0.23
2023-05-17T11:41:52.436Z,0.57
2023-05-17T11:44:29.950Z,0.45
2023-05-17T11:47:09.734Z,0.63
2023-05-17T11:49:42.376Z,0.45
2023-05-17T11:52:09.099Z,0.33
2023-05-17T11:54:38.868Z,0.88
2023-05-17T11:57:07.247Z,0.68
2023-05-17T11:59:40.300Z,0.30
2023-05-17T12:02:07.191Z,0.35
2023-05-17T12:04:40.151Z,0.30
2023-05-17T12:07:10.821Z,0.25
2023-05-17T12:09:38.953Z,0.20
2023-05-17T12:12:06.325Z,0.35
2023-05-17T12:14:33.210Z,0.25
2023-05-17T12:17:02.756Z,0.30
2023-05-17T12:19:30.027Z,0.80
2023-05-17T12:22:15.497Z,0.57
2023-05-17T12:24:43.669Z,0.40
2023-05-17T12:27:10.995Z,0.57
2023-05-17T12:29:38.993Z,0.30
2023-05-17T12:32:07.944Z,0.32
2023-05-17T12:34:36.163Z,0.40
2023-05-17T12:37:03.498Z,0.20
2023-05-17T12:39:32.335Z,0.40
2023-05-17T12:41:59.616Z,0.43
2023-05-17T12:44:26.374Z,0.50
2023-05-17T12:46:59.156Z,0.32
2023-05-17T12:49:25.813Z,0.30
2023-05-17T12:51:55.244Z,0.28
2023-05-17T12:54:31.627Z,0.57
2023-05-17T12:57:11.591Z,0.30
2023-05-17T12:59:49.768Z,0.47
2023-05-17T13:02:17.542Z,0.30
2023-05-17T13:04:44.350Z,0.65
2023-05-17T13:07:12.511Z,0.30
2023-05-17T13:09:57.301Z,0.30
2023-05-17T13:12:24.884Z,0.30
2023-05-17T13:14:53.296Z,0.28
2023-05-17T13:17:22.877Z,0.22
2023-05-17T13:19:50.987Z,0.20
2023-05-17T13:22:18.415Z,0.30
2023-05-17T13:24:45.435Z,0.35
2023-05-17T13:27:12.665Z,0.50
2023-05-17T13:29:41.919Z,0.40
2023-05-17T13:32:12.091Z,0.20
2023-05-17T13:34:40.198Z,0.88
2023-05-17T13:37:11.051Z,0.20
2023-05-17T13:39:38.106Z,0.50
2023-05-17T13:42:09.115Z,0.50
2023-05-17T13:44:36.726Z,0.33
2023-05-17T13:47:03.388Z,0.50
2023-05-17T13:49:30.156Z,0.63
2023-05-17T13:51:57.765Z,0.43
2023-05-17T13:54:25.081Z,0.60
2023-05-17T13:56:51.819Z,0.30
2023-05-17T13:59:19.329Z,0.32
2023-05-17T14:01:46.061Z,0.70
2023-05-17T14:04:12.805Z,0.88
2023-05-17T14:06:39.603Z,0.60
2023-05-17T14:09:06.593Z,0.77
2023-05-17T14:11:33.993Z,0.30
2023-05-17T14:14:01.334Z,0.30
2023-05-17T14:16:28.005Z,1.10
2023-05-17T14:18:54.933Z,0.75
2023-05-17T14:21:21.584Z,0.97
2023-05-17T14:23:48.407Z,0.22
2023-05-17T14:26:16.345Z,0.35
2023-05-17T14:28:42.979Z,0.25
2023-05-17T14:31:10.697Z,0.50
2023-05-17T14:33:37.385Z,0.60
2023-05-17T14:36:05.324Z,0.65
2023-05-17T14:38:31.977Z,0.70
2023-05-17T14:41:00.815Z,1.02
2023-05-17T14:43:29.320Z,0.68
2023-05-17T14:45:57.140Z,0.30
2023-05-17T14:48:24.258Z,0.60
2023-05-17T14:50:51.643Z,0.70
2023-05-17T14:53:18.772Z,0.55
2023-05-17T14:55:45.348Z,0.30
2023-05-17T14:58:18.273Z,0.60
2023-05-17T15:00:49.566Z,0.40
2023-05-17T15:03:22.520Z,0.45
2023-05-17T15:05:58.897Z,0.30
2023-05-17T15:08:25.572Z,0.82
2023-05-17T15:10:52.317Z,0.60
2023-05-17T15:13:18.894Z,0.40
2023-05-17T15:15:47.136Z,0.40
2023-05-17T15:18:16.829Z,0.40
2023-05-17T15:20:43.606Z,0.30
2023-05-17T15:23:11.908Z,0.43
2023-05-17T15:25:39.960Z,0.55
2023-05-17T15:28:06.836Z,0.30
2023-05-17T15:30:33.956Z,0.90
2023-05-17T15:33:01.266Z,0.40
2023-05-17T15:35:29.757Z,0.37
2023-05-17T15:37:58.811Z,0.50
2023-05-17T15:40:25.766Z,0.57
2023-05-17T15:42:57.307Z,0.50
2023-05-17T15:45:31.359Z,0.40
2023-05-17T15:47:58.702Z,0.80
2023-05-17T15:50:27.489Z,0.32
2023-05-17T15:52:54.495Z,0.50
2023-05-17T15:55:21.891Z,0.57
2023-05-17T15:57:49.511Z,0.30
2023-05-17T16:00:16.477Z,0.37
2023-05-17T16:02:43.272Z,0.50
2023-05-17T16:05:10.564Z,0.32
2023-05-17T16:07:42.136Z,0.40
2023-05-17T16:10:09.593Z,0.20
2023-05-17T16:12:37.131Z,0.35
2023-05-17T16:15:04.025Z,1.08
2023-05-17T16:17:31.143Z,0.40
2023-05-17T16:19:58.349Z,0.68
2023-05-17T16:22:25.308Z,1.10
2023-05-17T16:24:55.098Z,0.40
2023-05-17T16:27:24.205Z,0.68
2023-05-17T16:29:52.059Z,0.80
2023-05-17T16:32:19.178Z,0.75
2023-05-17T16:34:49.600Z,0.60
2023-05-17T16:37:16.479Z,0.40
2023-05-17T16:39:43.067Z,0.82
2023-05-17T16:42:14.774Z,0.32
2023-05-17T16:44:41.549Z,0.50
2023-05-17T16:47:08.588Z,1.88
2023-05-17T16:49:36.787Z,0.50
2023-05-17T16:52:04.281Z,0.45
2023-05-17T16:54:33.824Z,0.65
2023-05-17T16:57:00.656Z,0.80
2023-05-17T16:59:27.546Z,0.73
2023-05-17T17:01:54.458Z,5.50
2023-05-17T17:04:22.104Z,3.25
2023-05-17T17:06:48.983Z,1.35
2023-05-17T17:09:16.402Z,0.50
2023-05-17T17:11:43.527Z,0.30
2023-05-17T17:14:13.445Z,0.65
2023-05-17T17:16:41.080Z,0.73
2023-05-17T17:19:11.061Z,0.30
2023-05-17T17:21:38.116Z,0.60
2023-05-17T17:24:06.657Z,0.60
2023-05-17T17:26:35.565Z,0.57
2023-05-17T17:29:04.055Z,0.70
2023-05-17T17:31:32.613Z,0.40
2023-05-17T17:33:59.458Z,0.60
2023-05-17T17:36:26.214Z,0.70
2023-05-17T17:38:53.238Z,1.77
2023-05-17T17:41:21.443Z,3.47
2023-05-17T17:43:49.952Z,5.68
2023-05-17T17:46:16.529Z,0.95
2023-05-17T17:48:43.333Z,0.30
2023-05-17T17:51:09.952Z,0.65
2023-05-17T17:53:37.717Z,0.25
2023-05-17T17:56:06.669Z,0.60
2023-05-17T17:58:35.014Z,0.60
2023-05-17T18:01:02.324Z,0.20
2023-05-17T18:03:30.058Z,0.60
2023-05-17T18:05:56.940Z,0.40
2023-05-17T18:08:23.533Z,0.40
2023-05-17T18:10:54.381Z,0.30
2023-05-17T18:13:21.006Z,0.22
2023-05-17T18:15:51.248Z,0.40
2023-05-17T18:18:18.079Z,0.20
2023-05-17T18:20:45.907Z,0.43
2023-05-17T18:23:12.677Z,0.43
2023-05-17T18:25:41.697Z,0.50
2023-05-17T18:28:09.116Z,0.63
2023-05-17T18:30:35.875Z,0.30
2023-05-17T18:33:02.841Z,0.60
2023-05-17T18:35:30.130Z,0.38
2023-05-17T18:37:56.920Z,0.52
2023-05-17T18:40:23.529Z,0.20
2023-05-17T18:42:51.634Z,0.70
2023-05-17T18:45:20.748Z,0.43
2023-05-17T18:47:48.002Z,0.63
2023-05-17T18:50:16.277Z,0.47
2023-05-17T18:52:43.100Z,0.25
2023-05-17T18:55:09.913Z,0.20
2023-05-17T18:57:37.170Z,0.70
2023-05-17T19:00:06.647Z,0.30
2023-05-17T19:02:35.656Z,0.20
2023-05-17T19:05:03.100Z,0.40
2023-05-17T19:07:29.787Z,0.25
2023-05-17T19:09:56.711Z,0.40
2023-05-17T19:12:23.313Z,0.32
2023-05-17T19:14:51.348Z,0.40
2023-05-17T19:17:18.324Z,0.47
2023-05-17T19:19:45.899Z,0.30
2023-05-17T19:22:12.977Z,0.25
2023-05-17T19:24:39.605Z,0.50
2023-05-17T19:27:09.203Z,0.60
2023-05-17T19:29:36.310Z,0.45
2023-05-17T19:32:02.929Z,0.30
2023-05-17T19:34:30.350Z,0.63
2023-05-17T19:36:57.506Z,1.00
2023-05-17T19:39:24.002Z,0.50
2023-05-17T19:41:52.102Z,0.38
2023-05-17T19:44:18.920Z,0.40
2023-05-17T19:46:46.339Z,0.20
2023-05-17T19:49:13.066Z,0.40
2023-05-17T19:51:40.974Z,0.32
2023-05-17T19:54:08.059Z,0.30
2023-05-17T19:56:34.841Z,0.22
2023-05-17T19:59:03.823Z,0.30
2023-05-17T20:01:30.453Z,0.28
2023-05-17T20:03:57.491Z,0.20
2023-05-17T20:06:24.314Z,0.40
2023-05-17T20:08:50.891Z,0.38
2023-05-17T20:11:17.715Z,1.10
2023-05-17T20:13:44.510Z,0.40
2023-05-17T20:16:14.655Z,0.53
2023-05-17T20:18:46.051Z,0.25
2023-05-17T20:21:18.179Z,1.73
2023-05-17T20:23:44.985Z,1.13
2023-05-17T20:26:17.084Z,0.65
2023-05-17T20:28:45.390Z,0.40
2023-05-17T20:31:14.141Z,0.43
2023-05-17T20:33:40.851Z,0.75
2023-05-17T20:36:07.485Z,0.50
2023-05-17T20:38:34.163Z,0.57
2023-05-17T20:41:06.632Z,0.97
2023-05-17T20:43:34.970Z,0.50
2023-05-17T20:46:08.037Z,0.55
2023-05-17T20:48:35.254Z,0.50
2023-05-17T20:51:02.877Z,0.77
2023-05-17T20:53:32.757Z,0.23
2023-05-17T20:56:01.121Z,0.47
2023-05-17T20:58:30.658Z,0.60
2023-05-17T21:00:58.608Z,0.50
2023-05-17T21:03:28.370Z,0.70
2023-05-17T21:05:57.858Z,0.60
2023-05-17T21:08:24.451Z,0.75
2023-05-17T21:10:51.174Z,0.52
2023-05-17T21:13:17.694Z,0.60
2023-05-17T21:15:46.966Z,1.58
2023-05-17T21:18:20.967Z,0.60
2023-05-17T21:20:50.871Z,0.40
2023-05-17T21:23:18.401Z,1.85
2023-05-17T21:25:45.486Z,0.93
2023-05-17T21:28:12.109Z,0.77
2023-05-17T21:30:39.521Z,0.57
2023-05-17T21:33:06.962Z,0.52
2023-05-17T21:35:35.661Z,0.63
2023-05-17T21:38:02.347Z,0.90
2023-05-17T21:40:29.491Z,0.43
2023-05-17T21:42:56.270Z,0.50
2023-05-17T21:45:22.894Z,0.40
2023-05-17T21:47:51.535Z,0.22
2023-05-17T21:50:18.422Z,0.50
2023-05-17T21:52:44.871Z,0.60
2023-05-17T21:55:11.635Z,0.47
2023-05-17T21:57:39.488Z,0.57
2023-05-17T22:00:10.501Z,0.82
2023-05-17T22:02:37.272Z,0.70
2023-05-17T22:05:06.369Z,0.45
2023-05-17T22:07:37.008Z,0.67
2023-05-17T22:10:09.773Z,0.80
2023-05-17T22:12:40.315Z,0.95
2023-05-17T22:15:07.613Z,1.35
2023-05-17T22:17:47.633Z,0.50
2023-05-17T22:20:20.626Z,0.73
2023-05-17T22:22:47.292Z,0.60
2023-05-17T22:25:15.725Z,0.50
2023-05-17T22:27:42.932Z,0.98
2023-05-17T22:30:10.106Z,0.77
2023-05-17T22:32:37.710Z,0.80
2023-05-17T22:35:05.165Z,0.43
2023-05-17T22:37:34.282Z,0.50
2023-05-17T22:40:01.049Z,0.93
2023-05-17T22:42:27.657Z,0.40
2023-05-17T22:44:54.431Z,0.87
2023-05-17T22:47:23.123Z,0.40
2023-05-17T22:49:52.790Z,0.68
2023-05-17T22:52:20.090Z,0.30
2023-05-17T22:54:46.922Z,0.43
2023-05-17T22:57:17.332Z,0.50
2023-05-17T22:59:44.279Z,0.20
2023-05-17T23:02:12.480Z,0.65
2023-05-17T23:04:40.478Z,0.40
2023-05-17T23:07:10.000Z,0.63
2023-05-17T23:09:40.870Z,0.30
2023-05-17T23:12:08.695Z,0.75
2023-05-17T23:14:36.155Z,0.40
2023-05-17T23:17:04.214Z,0.98
2023-05-17T23:19:32.088Z,0.30
2023-05-17T23:22:06.484Z,0.53
2023-05-17T23:24:39.077Z,0.63
2023-05-17T23:27:09.932Z,0.40
2023-05-17T23:29:36.919Z,0.70
2023-05-17T23:32:03.500Z,0.55
2023-05-17T23:34:33.562Z,0.50
2023-05-17T23:37:01.114Z,0.45
2023-05-17T23:39:27.779Z,0.70
2023-05-17T23:41:55.343Z,0.40
2023-05-17T23:44:22.002Z,0.70
2023-05-17T23:46:48.873Z,0.40
2023-05-17T23:49:16.564Z,1.02
2023-05-17T23:51:43.378Z,0.50
2023-05-17T23:54:09.976Z,0.43
2023-05-17T23:56:36.981Z,0.40
2023-05-17T23:59:03.886Z,0.50
